createdAt,value
2019-03-27T09:21:33.096Z,8760.00
2019-03-27T09:22:33.083Z,8512.00
2019-03-27T09:23:33.066Z,8344.00
2019-03-27T09:24:33.055Z,8104.00
2019-03-27T09:25:33.067Z,7708.00
2019-03-27T09:26:33.034Z,6724.00
2019-03-27T09:27:33.023Z,6112.00
2019-03-27T09:28:33.011Z,5592.00
2019-03-27T09:29:33.001Z,5660.00
2019-03-27T09:30:33.012Z,7012.00
2019-03-27T09:31:44.155Z,7228.00
2019-03-27T09:32:33.971Z,6888.00
2019-03-27T09:33:32.954Z,6836.00
2019-03-27T09:34:32.944Z,6832.00
2019-03-27T09:35:32.942Z,7184.00
2019-03-27T09:36:32.923Z,7104.00
2019-03-27T09:37:32.916Z,6508.00
2019-03-27T09:38:32.898Z,5516.00
2019-03-27T09:39:32.885Z,7104.00
2019-03-27T09:40:32.881Z,7128.00
2019-03-27T09:41:32.863Z,7064.00
2019-03-27T09:42:32.852Z,7004.00
2019-03-27T09:43:32.843Z,7204.00
2019-03-27T09:44:32.835Z,7288.00
2019-03-27T09:45:32.829Z,7492.00
2019-03-27T09:46:32.809Z,7928.00
2019-03-27T09:47:34.579Z,8236.00
2019-03-27T09:48:32.783Z,8352.00
2019-03-27T09:49:32.775Z,7692.00
2019-03-27T09:50:32.761Z,7000.00
2019-03-27T09:51:32.759Z,5884.00
2019-03-27T09:52:32.737Z,5440.00
2019-03-27T09:53:32.726Z,5180.00
2019-03-27T09:54:32.715Z,5248.00
2019-03-27T09:55:32.707Z,5076.00
2019-03-27T09:56:32.702Z,5172.00
2019-03-27T09:57:32.682Z,8112.00
2019-03-27T09:58:32.671Z,11820.00
2019-03-27T09:59:32.661Z,9464.00
2019-03-27T10:00:32.647Z,37056.00
2019-03-27T10:01:32.645Z,17312.00
2019-03-27T10:02:32.630Z,5136.00
2019-03-27T10:03:32.614Z,4484.00
2019-03-27T10:04:32.601Z,5124.00
2019-03-27T10:05:32.591Z,6264.00
2019-03-27T10:06:32.588Z,28224.00
2019-03-27T10:07:32.567Z,5672.00
2019-03-27T10:08:32.558Z,5188.00
2019-03-27T10:09:32.545Z,5240.00
2019-03-27T10:10:32.534Z,6716.00
2019-03-27T10:11:32.544Z,8408.00
2019-03-27T10:12:32.510Z,8912.00
2019-03-27T10:13:32.499Z,7940.00
2019-03-27T10:14:32.489Z,6284.00
2019-03-27T10:15:32.477Z,5932.00
2019-03-27T10:16:32.479Z,6244.00
2019-03-27T10:17:32.453Z,7508.00
2019-03-27T10:18:32.442Z,7264.00
2019-03-27T10:19:32.430Z,7240.00
2019-03-27T10:20:32.419Z,7348.00
2019-03-27T10:21:32.420Z,7728.00
2019-03-27T10:22:32.398Z,16000.00
2019-03-27T10:23:32.387Z,40352.00
2019-03-27T10:24:32.374Z,51840.00
2019-03-27T10:25:32.364Z,33504.00
2019-03-27T10:26:32.362Z,10840.00
2019-03-27T10:27:32.362Z,7720.00
2019-03-27T10:28:32.331Z,7276.00
2019-03-27T10:29:32.318Z,7228.00
2019-03-27T10:30:32.309Z,7356.00
2019-03-27T10:31:32.303Z,7208.00
2019-03-27T10:32:32.284Z,7256.00
2019-03-27T10:33:32.273Z,6968.00
2019-03-27T10:34:32.261Z,6732.00
2019-03-27T10:35:32.251Z,6700.00
2019-03-27T10:36:32.245Z,6460.00
2019-03-27T10:37:32.229Z,4588.00
2019-03-27T10:38:32.223Z,3708.00
2019-03-27T10:39:32.229Z,3224.00
2019-03-27T10:40:32.202Z,2716.00
2019-03-27T10:41:32.202Z,2516.00
2019-03-27T10:42:32.170Z,3068.00
2019-03-27T10:43:32.159Z,4116.00
2019-03-27T10:44:32.147Z,4620.00
2019-03-27T10:45:32.140Z,4024.00
2019-03-27T10:46:32.134Z,5252.00
2019-03-27T10:47:32.115Z,2680.00
2019-03-27T10:48:32.102Z,2228.00
2019-03-27T10:49:34.354Z,1968.00
2019-03-27T10:50:32.085Z,1752.00
2019-03-27T10:51:32.080Z,1540.00
2019-03-27T10:52:32.056Z,1436.00
2019-03-27T10:53:32.045Z,1344.00
2019-03-27T10:54:32.034Z,1356.00
2019-03-27T10:55:34.516Z,1344.00
2019-03-27T10:56:32.026Z,1268.00
2019-03-27T10:57:32.010Z,1176.00
2019-03-27T10:58:31.990Z,1056.00
2019-03-27T10:59:31.977Z,912.00
2019-03-27T11:00:31.969Z,816.00
2019-03-27T11:01:31.973Z,740.00
2019-03-27T11:02:31.943Z,696.00
2019-03-27T11:03:31.932Z,668.00
2019-03-27T11:04:31.920Z,644.00
2019-03-27T11:05:31.949Z,616.00
2019-03-27T11:06:31.911Z,604.00
2019-03-27T11:07:31.885Z,600.00
2019-03-27T11:08:31.877Z,604.00
2019-03-27T11:09:31.865Z,604.00
2019-03-27T11:10:31.854Z,604.00
2019-03-27T11:11:31.842Z,632.00
2019-03-27T11:12:31.838Z,680.00
2019-03-27T11:13:34.371Z,756.00
2019-03-27T11:14:37.649Z,828.00
2019-03-27T11:15:32.795Z,872.00
2019-03-27T11:16:31.785Z,904.00
2019-03-27T11:17:31.783Z,944.00
2019-03-27T11:18:31.764Z,1016.00
2019-03-27T11:19:33.539Z,1068.00
2019-03-27T11:20:31.852Z,1128.00
2019-03-27T11:21:31.727Z,1228.00
2019-03-27T11:22:31.733Z,1312.00
2019-03-27T11:23:31.708Z,1408.00
2019-03-27T11:24:31.696Z,1480.00
2019-03-27T11:25:33.303Z,1588.00
2019-03-27T11:26:31.671Z,1692.00
2019-03-27T11:27:31.673Z,1844.00
2019-03-27T11:28:31.686Z,1948.00
2019-03-27T11:29:31.640Z,2020.00
2019-03-27T11:30:31.629Z,2124.00
2019-03-27T11:31:31.624Z,2224.00
2019-03-27T11:32:31.622Z,2348.00
2019-03-27T11:33:31.592Z,2496.00
2019-03-27T11:34:31.581Z,2692.00
2019-03-27T11:35:31.569Z,2736.00
2019-03-27T11:36:31.558Z,2752.00
2019-03-27T11:37:31.557Z,2824.00
2019-03-27T11:38:31.535Z,2876.00
2019-03-27T11:39:31.526Z,2908.00
2019-03-27T11:40:31.517Z,2936.00
2019-03-27T11:41:31.502Z,2968.00
2019-03-27T11:42:31.499Z,2920.00
2019-03-27T11:43:31.480Z,2884.00
2019-03-27T11:44:31.469Z,2928.00
2019-03-27T11:45:31.468Z,2972.00
2019-03-27T11:46:32.350Z,3116.00
2019-03-27T11:47:31.442Z,3180.00
2019-03-27T11:48:31.424Z,3212.00
2019-03-27T11:49:31.413Z,3148.00
2019-03-27T11:50:44.138Z,3284.00
2019-03-27T11:51:32.388Z,3668.00
2019-03-27T11:52:31.389Z,4288.00
2019-03-27T11:53:31.367Z,3564.00
2019-03-27T11:54:31.356Z,3120.00
2019-03-27T11:55:31.343Z,2924.00
2019-03-27T11:56:31.334Z,2764.00
2019-03-27T11:57:31.335Z,2676.00
2019-03-27T11:58:31.313Z,2720.00
2019-03-27T11:59:31.298Z,2776.00
2019-03-27T12:00:31.286Z,2676.00
2019-03-27T12:01:40.516Z,2660.00
2019-03-27T12:02:32.274Z,2736.00
2019-03-27T12:03:31.253Z,2776.00
2019-03-27T12:04:31.242Z,2632.00
2019-03-27T12:05:31.230Z,2520.00
2019-03-27T12:06:31.221Z,2440.00
2019-03-27T12:07:31.244Z,2348.00
2019-03-27T12:08:31.199Z,2356.00
2019-03-27T12:09:31.190Z,2332.00
2019-03-27T12:10:31.177Z,2296.00
2019-03-27T12:11:31.165Z,2016.00
2019-03-27T12:12:31.151Z,1796.00
2019-03-27T12:13:31.166Z,1684.00
2019-03-27T12:14:31.135Z,1672.00
2019-03-27T12:15:31.118Z,1696.00
2019-03-27T12:16:31.107Z,1748.00
2019-03-27T12:17:31.102Z,1772.00
2019-03-27T12:18:32.223Z,1680.00
2019-03-27T12:19:31.075Z,1492.00
2019-03-27T12:20:31.063Z,1324.00
2019-03-27T12:21:31.050Z,1268.00
2019-03-27T12:22:31.041Z,1200.00
2019-03-27T12:23:31.036Z,1160.00
2019-03-27T12:24:31.019Z,1144.00
2019-03-27T12:25:31.012Z,1132.00
2019-03-27T12:26:30.993Z,1120.00
2019-03-27T12:27:30.984Z,1032.00
2019-03-27T12:28:30.996Z,1076.00
2019-03-27T12:29:30.974Z,1084.00
2019-03-27T12:30:30.948Z,1064.00
2019-03-27T12:31:30.943Z,1012.00
2019-03-27T12:32:30.927Z,936.00
2019-03-27T12:33:30.924Z,872.00
2019-03-27T12:34:30.906Z,828.00
2019-03-27T12:35:30.893Z,804.00
2019-03-27T12:36:30.880Z,784.00
2019-03-27T12:37:30.869Z,780.00
2019-03-27T12:38:30.865Z,756.00
2019-03-27T12:39:30.847Z,768.00
2019-03-27T12:40:30.836Z,792.00
2019-03-27T12:41:33.086Z,812.00
2019-03-27T12:42:30.816Z,816.00
2019-03-27T12:43:30.813Z,796.00
2019-03-27T12:44:30.789Z,788.00
2019-03-27T12:45:30.778Z,760.00
2019-03-27T12:46:30.781Z,780.00
2019-03-27T12:47:30.758Z,788.00
2019-03-27T12:48:30.751Z,800.00
2019-03-27T12:49:30.766Z,824.00
2019-03-27T12:50:30.721Z,876.00
2019-03-27T12:51:30.711Z,948.00
2019-03-27T12:52:30.713Z,1008.00
2019-03-27T12:53:30.700Z,1064.00
2019-03-27T12:54:30.677Z,1100.00
2019-03-27T12:55:30.664Z,1128.00
2019-03-27T12:56:30.655Z,1208.00
2019-03-27T12:57:30.644Z,1292.00
2019-03-27T12:58:30.646Z,1432.00
2019-03-27T12:59:30.618Z,1436.00
2019-03-27T13:00:30.609Z,1500.00
2019-03-27T13:01:30.596Z,1528.00
2019-03-27T13:02:30.586Z,1556.00
2019-03-27T13:03:30.609Z,1500.00
2019-03-27T13:04:30.573Z,1404.00
2019-03-27T13:05:30.554Z,1412.00
2019-03-27T13:06:30.540Z,1440.00
2019-03-27T13:07:30.531Z,1504.00
2019-03-27T13:08:30.518Z,1624.00
2019-03-27T13:09:30.515Z,1748.00
2019-03-27T13:10:30.517Z,1780.00
2019-03-27T13:11:30.482Z,1832.00
2019-03-27T13:12:30.476Z,1896.00
2019-03-27T13:13:30.461Z,1664.00
2019-03-27T13:14:30.462Z,1876.00
2019-03-27T13:15:30.437Z,1868.00
2019-03-27T13:16:30.425Z,1848.00
2019-03-27T13:17:30.421Z,1816.00
2019-03-27T13:18:30.404Z,1700.00
2019-03-27T13:19:30.401Z,1664.00
2019-03-27T13:20:30.384Z,1668.00
2019-03-27T13:21:30.372Z,1804.00
2019-03-27T13:22:30.363Z,1632.00
2019-03-27T13:23:30.348Z,1556.00
2019-03-27T13:24:30.345Z,1552.00
2019-03-27T13:25:30.326Z,1604.00
2019-03-27T13:26:30.315Z,1748.00
2019-03-27T13:27:30.310Z,2156.00
2019-03-27T13:28:30.294Z,1948.00
2019-03-27T13:29:30.286Z,2080.00
2019-03-27T13:30:30.270Z,1968.00
2019-03-27T13:31:30.256Z,1492.00
2019-03-27T13:32:30.245Z,1472.00
2019-03-27T13:33:30.237Z,1440.00
2019-03-27T13:34:30.230Z,1408.00
2019-03-27T13:35:30.216Z,1380.00
2019-03-27T13:36:30.206Z,1328.00
2019-03-27T13:37:30.189Z,1260.00
2019-03-27T13:38:30.177Z,1204.00
2019-03-27T13:39:30.177Z,1156.00
2019-03-27T13:40:30.154Z,1116.00
2019-03-27T13:41:30.141Z,1084.00
2019-03-27T13:42:30.131Z,1080.00
2019-03-27T13:43:30.135Z,1092.00
2019-03-27T13:44:36.921Z,1092.00
2019-03-27T13:45:31.097Z,1064.00
2019-03-27T13:46:30.087Z,1044.00
2019-03-27T13:47:30.078Z,1048.00
2019-03-27T13:48:30.063Z,1040.00
2019-03-27T13:49:30.069Z,1028.00
2019-03-27T13:50:30.040Z,1060.00
2019-03-27T13:51:40.324Z,1076.00
2019-03-27T13:52:31.017Z,1052.00
2019-03-27T13:53:30.007Z,1044.00
2019-03-27T13:54:30.007Z,1120.00
2019-03-27T13:55:29.991Z,1144.00
2019-03-27T13:56:29.975Z,1624.00
2019-03-27T13:57:29.962Z,1844.00
2019-03-27T13:58:29.950Z,2064.00
2019-03-27T13:59:29.952Z,2280.00
2019-03-27T14:00:29.927Z,2424.00
2019-03-27T14:01:29.918Z,2424.00
2019-03-27T14:02:29.905Z,2364.00
2019-03-27T14:03:29.893Z,2184.00
2019-03-27T14:04:29.883Z,1680.00
2019-03-27T14:05:29.883Z,1684.00
2019-03-27T14:06:29.859Z,1332.00
2019-03-27T14:07:29.852Z,1312.00
2019-03-27T14:08:29.837Z,1476.00
2019-03-27T14:09:29.827Z,1600.00
2019-03-27T14:10:29.832Z,1680.00
2019-03-27T14:11:29.802Z,1676.00
2019-03-27T14:12:29.794Z,1716.00
2019-03-27T14:13:29.784Z,1664.00
2019-03-27T14:14:29.769Z,1564.00
2019-03-27T14:15:29.790Z,1544.00
2019-03-27T14:16:29.746Z,1564.00
2019-03-27T14:17:29.735Z,1752.00
2019-03-27T14:18:29.774Z,1784.00
2019-03-27T14:19:29.743Z,1780.00
2019-03-27T14:20:29.711Z,1708.00
2019-03-27T14:21:29.703Z,1584.00
2019-03-27T14:22:29.678Z,1548.00
2019-03-27T14:23:29.670Z,1468.00
2019-03-27T14:24:29.655Z,1480.00
2019-03-27T14:25:29.652Z,1492.00
2019-03-27T14:26:29.634Z,1444.00
2019-03-27T14:27:29.624Z,1404.00
2019-03-27T14:28:29.611Z,1440.00
2019-03-27T14:29:29.600Z,1404.00
2019-03-27T14:30:29.602Z,1348.00
2019-03-27T14:31:29.576Z,1300.00
2019-03-27T14:32:29.565Z,1268.00
2019-03-27T14:33:29.554Z,1280.00
2019-03-27T14:34:29.547Z,1312.00
2019-03-27T14:35:29.539Z,1268.00
2019-03-27T14:36:29.521Z,1196.00
2019-03-27T14:37:29.525Z,1196.00
2019-03-27T14:38:29.499Z,1184.00
2019-03-27T14:39:29.487Z,1232.00
2019-03-27T14:40:29.487Z,1264.00
2019-03-27T14:41:29.463Z,1260.00
2019-03-27T14:42:29.453Z,1216.00
2019-03-27T14:43:29.442Z,1180.00
2019-03-27T14:44:29.438Z,1228.00
2019-03-27T14:45:29.432Z,1184.00
2019-03-27T14:46:29.406Z,1192.00
2019-03-27T14:47:29.495Z,1192.00
2019-03-27T14:48:29.385Z,1172.00
2019-03-27T14:49:29.379Z,1164.00
2019-03-27T14:50:29.373Z,1136.00
2019-03-27T14:51:29.353Z,1096.00
2019-03-27T14:52:29.343Z,1056.00
2019-03-27T14:53:29.328Z,992.00
2019-03-27T14:54:29.321Z,948.00
2019-03-27T14:55:29.315Z,916.00
2019-03-27T14:56:29.296Z,876.00
2019-03-27T14:57:29.284Z,844.00
2019-03-27T14:58:29.270Z,908.00
2019-03-27T14:59:29.266Z,936.00
2019-03-27T15:00:29.260Z,992.00
2019-03-27T15:01:29.236Z,1056.00
2019-03-27T15:02:29.281Z,1132.00
2019-03-27T15:03:29.215Z,1268.00
2019-03-27T15:04:29.204Z,1264.00
2019-03-27T15:05:29.205Z,1148.00
2019-03-27T15:06:29.182Z,1044.00
2019-03-27T15:07:29.167Z,1060.00
2019-03-27T15:08:29.166Z,1060.00
2019-03-27T15:09:29.148Z,1132.00
2019-03-27T15:10:29.144Z,1200.00
2019-03-27T15:11:29.127Z,1172.00
2019-03-27T15:12:29.111Z,1172.00
2019-03-27T15:13:29.099Z,1148.00
2019-03-27T15:14:29.089Z,1140.00
2019-03-27T15:15:29.086Z,1124.00
2019-03-27T15:16:29.072Z,1092.00
2019-03-27T15:17:29.053Z,1080.00
2019-03-27T15:18:29.043Z,1084.00
2019-03-27T15:19:29.032Z,1144.00
2019-03-27T15:20:29.032Z,1120.00
2019-03-27T15:21:29.009Z,1124.00
2019-03-27T15:22:29.104Z,1112.00
2019-03-27T15:23:28.985Z,1108.00
2019-03-27T15:24:28.975Z,1096.00
2019-03-27T15:25:28.985Z,1080.00
2019-03-27T15:26:28.953Z,1012.00
2019-03-27T15:27:28.945Z,1004.00
2019-03-27T15:28:28.931Z,1032.00
2019-03-27T15:29:28.918Z,1048.00
2019-03-27T15:30:28.906Z,1084.00
2019-03-27T15:31:28.904Z,1088.00
2019-03-27T15:32:28.888Z,1068.00
2019-03-27T15:33:28.882Z,1056.00
2019-03-27T15:34:28.870Z,1012.00
2019-03-27T15:35:28.850Z,932.00
2019-03-27T15:36:28.848Z,900.00
2019-03-27T15:37:28.838Z,904.00
2019-03-27T15:38:28.819Z,900.00
2019-03-27T15:39:28.805Z,928.00
2019-03-27T15:40:28.854Z,924.00
2019-03-27T15:41:28.791Z,972.00
2019-03-27T15:42:28.770Z,972.00
2019-03-27T15:43:28.759Z,996.00
2019-03-27T15:44:28.749Z,1028.00
2019-03-27T15:45:28.736Z,1032.00
2019-03-27T15:46:28.735Z,984.00
2019-03-27T15:47:28.713Z,952.00
2019-03-27T15:48:28.704Z,944.00
2019-03-27T15:49:28.691Z,896.00
2019-03-27T15:50:28.687Z,840.00
2019-03-27T15:51:28.678Z,820.00
2019-03-27T15:52:36.332Z,812.00
2019-03-27T15:53:29.653Z,836.00
2019-03-27T15:54:28.634Z,832.00
2019-03-27T15:55:28.626Z,820.00
2019-03-27T15:56:28.623Z,732.00
2019-03-27T15:57:28.603Z,720.00
2019-03-27T15:58:28.591Z,736.00
2019-03-27T15:59:28.579Z,720.00
2019-03-27T16:00:28.568Z,696.00
2019-03-27T16:01:28.568Z,680.00
2019-03-27T16:02:28.551Z,692.00
2019-03-27T16:03:28.532Z,712.00
2019-03-27T16:04:28.524Z,720.00
2019-03-27T16:05:28.509Z,724.00
2019-03-27T16:06:28.531Z,716.00
2019-03-27T16:07:31.097Z,680.00
2019-03-27T16:08:28.479Z,624.00
2019-03-27T16:09:28.471Z,556.00
2019-03-27T16:10:28.461Z,524.00
2019-03-27T16:11:28.452Z,528.00
2019-03-27T16:12:28.432Z,568.00
2019-03-27T16:13:28.425Z,600.00
2019-03-27T16:14:28.410Z,624.00
2019-03-27T16:15:28.398Z,616.00
2019-03-27T16:16:28.396Z,576.00
2019-03-27T16:17:28.374Z,584.00
2019-03-27T16:18:28.364Z,592.00
2019-03-27T16:19:28.351Z,600.00
2019-03-27T16:20:28.345Z,608.00
2019-03-27T16:21:28.338Z,592.00
2019-03-27T16:22:28.320Z,584.00
2019-03-27T16:23:28.305Z,604.00
2019-03-27T16:24:28.295Z,608.00
2019-03-27T16:25:28.283Z,620.00
2019-03-27T16:26:28.281Z,636.00
2019-03-27T16:27:28.262Z,656.00
2019-03-27T16:28:28.261Z,680.00
2019-03-27T16:29:28.237Z,684.00
2019-03-27T16:30:28.292Z,668.00
2019-03-27T16:31:28.231Z,644.00
2019-03-27T16:32:28.204Z,620.00
2019-03-27T16:33:28.228Z,612.00
2019-03-27T16:34:28.180Z,608.00
2019-03-27T16:35:28.176Z,600.00
2019-03-27T16:36:28.220Z,596.00
2019-03-27T16:37:28.199Z,576.00
2019-03-27T16:38:28.156Z,604.00
2019-03-27T16:39:28.124Z,596.00
2019-03-27T16:40:28.124Z,584.00
2019-03-27T16:41:28.132Z,580.00
2019-03-27T16:42:28.208Z,576.00
2019-03-27T16:43:28.078Z,560.00
2019-03-27T16:44:28.068Z,528.00
2019-03-27T16:45:28.056Z,504.00
2019-03-27T16:46:28.062Z,488.00
2019-03-27T16:47:28.034Z,492.00
2019-03-27T16:48:28.023Z,484.00
2019-03-27T16:49:28.010Z,480.00
2019-03-27T16:50:27.999Z,468.00
2019-03-27T16:51:27.989Z,456.00
2019-03-27T16:52:27.992Z,444.00
2019-03-27T16:53:27.967Z,432.00
2019-03-27T16:54:27.952Z,424.00
2019-03-27T16:55:27.943Z,428.00
2019-03-27T16:56:27.931Z,412.00
2019-03-27T16:57:27.929Z,408.00
2019-03-27T16:58:27.907Z,408.00
2019-03-27T16:59:27.897Z,404.00
2019-03-27T17:00:27.887Z,396.00
2019-03-27T17:01:27.875Z,388.00
2019-03-27T17:02:27.896Z,380.00
2019-03-27T17:03:27.850Z,372.00
2019-03-27T17:04:27.840Z,364.00
2019-03-27T17:05:27.829Z,352.00
2019-03-27T17:06:27.817Z,348.00
2019-03-27T17:07:27.813Z,344.00
2019-03-27T17:08:27.795Z,340.00
2019-03-27T17:09:27.782Z,336.00
2019-03-27T17:10:27.773Z,320.00
2019-03-27T17:11:27.760Z,308.00
2019-03-27T17:12:27.757Z,296.00
2019-03-27T17:13:27.739Z,284.00
2019-03-27T17:14:27.729Z,280.00
2019-03-27T17:15:27.717Z,264.00
2019-03-27T17:16:27.703Z,252.00
2019-03-27T17:17:27.699Z,236.00
2019-03-27T17:18:28.238Z,228.00
2019-03-27T17:19:27.688Z,216.00
2019-03-27T17:20:27.657Z,200.00
2019-03-27T17:21:27.678Z,196.00
2019-03-27T17:22:27.667Z,192.00
2019-03-27T17:23:27.622Z,184.00
2019-03-27T17:24:27.616Z,176.00
2019-03-27T17:25:27.703Z,168.00
2019-03-27T17:26:27.589Z,164.00
2019-03-27T17:27:27.606Z,156.00
2019-03-27T17:28:27.593Z,148.00
2019-03-27T17:29:27.557Z,144.00
2019-03-27T17:30:27.551Z,140.00
2019-03-27T17:31:27.582Z,132.00
2019-03-27T17:32:27.552Z,124.00
2019-03-27T17:33:27.511Z,120.00
2019-03-27T17:34:27.509Z,116.00
2019-03-27T17:35:27.508Z,108.00
2019-03-27T17:36:27.477Z,96.00
2019-03-27T17:37:27.497Z,96.00
2019-03-27T17:38:27.454Z,364.00
2019-03-27T17:39:27.504Z,344.00
2019-03-27T17:40:27.441Z,324.00
2019-03-27T17:41:28.405Z,304.00
2019-03-27T17:42:27.424Z,280.00
2019-03-27T17:43:27.402Z,260.00
2019-03-27T17:44:27.394Z,240.00
2019-03-27T17:45:27.376Z,228.00
2019-03-27T17:46:27.364Z,216.00
2019-03-27T17:47:27.397Z,200.00
2019-03-27T17:48:27.341Z,188.00
2019-03-27T17:49:27.327Z,176.00
2019-03-27T17:50:27.316Z,160.00
2019-03-27T17:51:27.311Z,148.00
2019-03-27T17:52:27.294Z,128.00
2019-03-27T17:53:31.928Z,116.00
2019-03-27T17:54:27.272Z,104.00
2019-03-27T17:55:27.262Z,88.00
2019-03-27T17:56:27.248Z,80.00
2019-03-27T17:57:27.238Z,72.00
2019-03-27T17:58:27.234Z,64.00
2019-03-27T17:59:27.241Z,60.00
2019-03-27T18:00:27.203Z,52.00
2019-03-27T18:01:27.190Z,44.00
2019-03-27T18:02:27.179Z,36.00
2019-03-27T18:03:27.179Z,32.00
2019-03-27T18:04:27.159Z,28.00
2019-03-27T18:05:27.151Z,24.00
2019-03-27T18:06:27.133Z,20.00
2019-03-27T18:07:27.124Z,16.00
2019-03-27T18:08:27.121Z,16.00
2019-03-27T18:09:27.099Z,12.00
2019-03-27T18:10:27.091Z,12.00
2019-03-27T18:11:27.078Z,8.00
2019-03-27T18:12:27.065Z,4.00
2019-03-27T18:13:27.063Z,4.00
2019-03-27T18:14:27.042Z,4.00
2019-03-27T18:15:27.058Z,8.00
2019-03-27T18:16:27.020Z,4.00
2019-03-27T18:17:27.009Z,4.00
2019-03-27T18:18:27.008Z,4.00
2019-03-27T18:19:26.984Z,0.00
2019-03-27T18:20:26.979Z,4.00
2019-03-27T18:21:26.970Z,0.00
2019-03-27T18:22:26.953Z,0.00
2019-03-27T18:23:27.035Z,4.00
2019-03-27T18:24:26.933Z,0.00
2019-03-27T18:25:26.917Z,0.00
2019-03-27T18:26:26.912Z,0.00
2019-03-27T18:27:26.894Z,0.00
2019-03-27T18:28:26.883Z,0.00
2019-03-27T18:29:26.886Z,0.00
2019-03-27T18:30:26.860Z,0.00
2019-03-27T18:31:26.848Z,0.00
2019-03-27T18:32:26.841Z,0.00
2019-03-27T18:33:26.828Z,0.00
2019-03-27T18:34:26.824Z,0.00
2019-03-27T18:35:26.803Z,0.00
2019-03-27T18:36:26.791Z,0.00
2019-03-27T18:37:26.796Z,0.00
2019-03-27T18:38:26.777Z,0.00
2019-03-27T18:39:26.770Z,0.00
2019-03-27T18:40:26.746Z,0.00
2019-03-27T18:41:26.737Z,0.00
2019-03-27T18:42:26.726Z,0.00
2019-03-27T18:43:26.713Z,0.00
2019-03-27T18:44:26.718Z,0.00
2019-03-27T18:45:26.689Z,0.00
2019-03-27T18:46:26.678Z,0.00
2019-03-27T18:47:26.669Z,0.00
2019-03-27T18:48:26.655Z,0.00
2019-03-27T18:49:26.693Z,0.00
2019-03-27T18:50:26.634Z,0.00
2019-03-27T18:51:26.620Z,0.00
2019-03-27T18:52:26.611Z,0.00
2019-03-27T18:53:26.601Z,0.00
2019-03-27T18:54:26.596Z,0.00
2019-03-27T18:55:27.229Z,0.00
2019-03-27T18:56:26.566Z,0.00
2019-03-27T18:57:26.554Z,0.00
2019-03-27T18:58:26.547Z,0.00
2019-03-27T18:59:26.538Z,0.00
2019-03-27T19:00:26.604Z,0.00
2019-03-27T19:01:26.510Z,0.00
2019-03-27T19:02:26.498Z,0.00
2019-03-27T19:03:26.485Z,0.00
2019-03-27T19:04:26.482Z,0.00
2019-03-27T19:05:26.465Z,0.00
2019-03-27T19:06:26.453Z,0.00
2019-03-27T19:07:26.441Z,0.00
2019-03-27T19:08:26.438Z,0.00
2019-03-27T19:09:26.429Z,0.00
2019-03-27T19:10:26.406Z,0.00
2019-03-27T19:11:26.395Z,0.00
2019-03-27T19:12:27.195Z,0.00
2019-03-27T19:13:26.373Z,0.00
2019-03-27T19:14:26.372Z,0.00
2019-03-27T19:15:26.349Z,0.00
2019-03-27T19:16:26.338Z,0.00
2019-03-27T19:17:26.328Z,0.00
2019-03-27T19:18:26.315Z,0.00
2019-03-27T19:19:26.313Z,0.00
2019-03-27T19:20:26.292Z,0.00
2019-03-27T19:21:26.281Z,0.00
2019-03-27T19:22:26.275Z,0.00
2019-03-27T19:23:26.263Z,0.00
2019-03-27T19:24:26.263Z,0.00
2019-03-27T19:25:26.240Z,0.00
2019-03-27T19:26:26.226Z,0.00
2019-03-27T19:27:26.214Z,0.00
2019-03-27T19:28:26.205Z,0.00
2019-03-27T19:29:26.255Z,0.00
2019-03-27T19:30:26.180Z,0.00
2019-03-27T19:31:26.176Z,0.00
2019-03-27T19:32:26.159Z,0.00
2019-03-27T19:33:26.148Z,0.00
2019-03-27T19:34:26.137Z,0.00
2019-03-27T19:35:26.132Z,0.00
2019-03-27T19:36:26.111Z,0.00
2019-03-27T19:37:26.102Z,0.00
2019-03-27T19:38:26.089Z,0.00
2019-03-27T19:39:26.081Z,0.00
2019-03-27T19:40:26.076Z,0.00
2019-03-27T19:41:26.056Z,0.00
2019-03-27T19:42:26.044Z,0.00
2019-03-27T19:43:26.037Z,0.00
2019-03-27T19:44:26.022Z,0.00
2019-03-27T19:45:26.021Z,0.00
2019-03-27T19:46:26.037Z,0.00
2019-03-27T19:47:25.990Z,0.00
2019-03-27T19:48:25.977Z,0.00
2019-03-27T19:49:25.970Z,0.00
2019-03-27T19:50:25.967Z,0.00
2019-03-27T19:51:25.942Z,0.00
2019-03-27T19:52:25.937Z,0.00
2019-03-27T19:53:25.919Z,0.00
2019-03-27T19:54:27.322Z,0.00
2019-03-27T19:55:25.908Z,0.00
2019-03-27T19:56:25.886Z,0.00
2019-03-27T19:57:25.874Z,0.00
2019-03-27T19:58:25.864Z,0.00
2019-03-27T19:59:25.851Z,0.00
2019-03-27T20:00:25.849Z,0.00
2019-03-27T20:01:25.833Z,0.00
2019-03-27T20:02:25.819Z,0.00
2019-03-27T20:03:25.807Z,0.00
2019-03-27T20:04:25.794Z,0.00
2019-03-27T20:05:25.796Z,0.00
2019-03-27T20:06:25.777Z,0.00
2019-03-27T20:07:35.309Z,0.00
2019-03-27T20:08:26.748Z,0.00
2019-03-27T20:09:25.739Z,0.00
2019-03-27T20:10:25.728Z,0.00
2019-03-27T20:11:25.747Z,0.00
2019-03-27T20:12:25.706Z,0.00
2019-03-27T20:13:25.692Z,0.00
2019-03-27T20:14:25.769Z,0.00
2019-03-27T20:15:25.672Z,0.00
2019-03-27T20:16:25.668Z,0.00
2019-03-27T20:17:25.647Z,0.00
2019-03-27T20:18:25.642Z,0.00
2019-03-27T20:19:25.641Z,0.00
2019-03-27T20:20:25.614Z,0.00
2019-03-27T20:21:25.611Z,0.00
2019-03-27T20:22:25.593Z,0.00
2019-03-27T20:23:25.583Z,0.00
2019-03-27T20:24:25.570Z,0.00
2019-03-27T20:25:25.569Z,0.00
2019-03-27T20:26:25.573Z,0.00
2019-03-27T20:27:25.535Z,0.00
2019-03-27T20:28:25.567Z,0.00
2019-03-27T20:29:25.522Z,0.00
2019-03-27T20:30:26.986Z,0.00
2019-03-27T20:31:25.503Z,0.00
2019-03-27T20:32:25.492Z,0.00
2019-03-27T20:33:25.477Z,0.00
2019-03-27T20:34:25.468Z,0.00
2019-03-27T20:35:25.447Z,0.00
2019-03-27T20:36:25.571Z,0.00
2019-03-27T20:37:25.428Z,0.00
2019-03-27T20:38:25.431Z,0.00
2019-03-27T20:39:25.435Z,0.00
2019-03-27T20:40:27.710Z,0.00
2019-03-27T20:41:25.396Z,0.00
2019-03-27T20:42:25.365Z,0.00
2019-03-27T20:43:25.366Z,0.00
2019-03-27T20:44:25.352Z,0.00
2019-03-27T20:45:25.353Z,0.00
2019-03-27T20:46:29.176Z,0.00
2019-03-27T20:47:25.345Z,0.00
2019-03-27T20:48:25.304Z,0.00
2019-03-27T20:49:25.295Z,0.00
2019-03-27T20:50:27.003Z,0.00
2019-03-27T20:51:25.275Z,0.00
2019-03-27T20:52:25.250Z,0.00
2019-03-27T20:53:25.273Z,0.00
2019-03-27T20:54:25.254Z,0.00
2019-03-27T20:55:30.454Z,0.00
2019-03-27T20:56:26.220Z,0.00
2019-03-27T20:57:25.195Z,0.00
2019-03-27T20:58:25.183Z,0.00
2019-03-27T20:59:25.178Z,0.00
2019-03-27T21:00:25.161Z,0.00
2019-03-27T21:01:25.151Z,0.00
2019-03-27T21:02:25.150Z,0.00
2019-03-27T21:03:25.132Z,0.00
2019-03-27T21:04:25.119Z,0.00
2019-03-27T21:05:25.105Z,0.00
2019-03-27T21:06:25.092Z,0.00
2019-03-27T21:07:25.091Z,0.00
2019-03-27T21:08:25.073Z,0.00
2019-03-27T21:09:25.059Z,0.00
2019-03-27T21:10:25.049Z,0.00
2019-03-27T21:11:25.038Z,0.00
2019-03-27T21:12:25.042Z,0.00
2019-03-27T21:13:25.013Z,0.00
2019-03-27T21:14:25.005Z,0.00
2019-03-27T21:15:25.082Z,0.00
2019-03-27T21:16:24.979Z,0.00
2019-03-27T21:17:25.009Z,0.00
2019-03-27T21:18:24.959Z,0.00
2019-03-27T21:19:24.948Z,0.00
2019-03-27T21:20:24.941Z,0.00
2019-03-27T21:21:24.926Z,0.00
2019-03-27T21:22:24.927Z,0.00
2019-03-27T21:23:24.907Z,0.00
2019-03-27T21:24:24.893Z,0.00
2019-03-27T21:25:25.020Z,0.00
2019-03-27T21:26:24.867Z,0.00
2019-03-27T21:27:24.869Z,0.00
2019-03-27T21:28:24.845Z,0.00
2019-03-27T21:29:24.841Z,0.00
2019-03-27T21:30:24.822Z,0.00
2019-03-27T21:31:24.823Z,0.00
2019-03-27T21:32:24.815Z,0.00
2019-03-27T21:33:24.788Z,0.00
2019-03-27T21:34:24.780Z,0.00
2019-03-27T21:35:24.764Z,0.00
2019-03-27T21:36:24.754Z,0.00
2019-03-27T21:37:24.758Z,0.00
2019-03-27T21:38:24.735Z,0.00
2019-03-27T21:39:25.966Z,0.00
2019-03-27T21:40:24.713Z,0.00
2019-03-27T21:41:24.696Z,0.00
2019-03-27T21:42:24.686Z,0.00
2019-03-27T21:43:24.689Z,0.00
2019-03-27T21:44:24.666Z,0.00
2019-03-27T21:45:24.654Z,0.00
2019-03-27T21:46:24.641Z,0.00
2019-03-27T21:47:24.629Z,0.00
2019-03-27T21:48:24.632Z,0.00
2019-03-27T21:49:24.615Z,0.00
2019-03-27T21:50:24.597Z,0.00
2019-03-27T21:51:24.585Z,0.00
2019-03-27T21:52:24.573Z,0.00
2019-03-27T21:53:24.578Z,0.00